createdAt,value
2022-12-25T00:01:24.896Z,3.67
2022-12-25T00:03:52.879Z,3.80
2022-12-25T00:06:20.271Z,2.97
2022-12-25T00:08:49.330Z,4.10
2022-12-25T00:11:19.685Z,3.57
2022-12-25T00:13:47.737Z,3.23
2022-12-25T00:16:21.628Z,4.17
2022-12-25T00:18:49.997Z,4.23
2022-12-25T00:21:17.661Z,4.07
2022-12-25T00:23:44.740Z,4.53
2022-12-25T00:26:16.678Z,4.40
2022-12-25T00:28:44.127Z,3.70
2022-12-25T00:31:16.507Z,3.67
2022-12-25T00:33:45.067Z,4.10
2022-12-25T00:36:14.369Z,4.23
2022-12-25T00:38:42.573Z,4.00
2022-12-25T00:41:16.036Z,4.00
2022-12-25T00:43:43.649Z,3.80
2022-12-25T00:46:13.105Z,4.00
2022-12-25T00:48:41.730Z,4.13
2022-12-25T00:51:11.406Z,4.40
2022-12-25T00:53:38.927Z,4.10
2022-12-25T00:56:07.686Z,3.67
2022-12-25T00:58:35.681Z,3.90
2022-12-25T01:01:03.398Z,3.77
2022-12-25T01:03:30.581Z,4.30
2022-12-25T01:06:07.855Z,3.70
2022-12-25T01:08:37.868Z,3.60
2022-12-25T01:11:07.353Z,3.67
2022-12-25T01:13:36.640Z,3.67
2022-12-25T01:16:08.382Z,3.73
2022-12-25T01:18:35.763Z,3.87
2022-12-25T01:21:09.847Z,4.10
2022-12-25T01:23:37.291Z,4.23
2022-12-25T01:26:10.016Z,4.10
2022-12-25T01:28:38.141Z,3.93
2022-12-25T01:31:08.271Z,4.10
2022-12-25T01:33:35.243Z,4.40
2022-12-25T01:36:02.153Z,4.00
2022-12-25T01:38:30.123Z,3.77
2022-12-25T01:40:57.074Z,3.90
2022-12-25T01:43:26.597Z,4.47
2022-12-25T01:45:53.719Z,4.33
2022-12-25T01:48:26.295Z,4.77
2022-12-25T01:51:07.229Z,5.10
2022-12-25T01:53:34.276Z,4.63
2022-12-25T01:56:05.413Z,4.70
2022-12-25T01:58:32.603Z,4.73
2022-12-25T02:00:59.744Z,4.87
2022-12-25T02:03:26.889Z,5.30
2022-12-25T02:05:54.453Z,4.73
2022-12-25T02:08:22.866Z,4.87
2022-12-25T02:10:49.743Z,4.97
2022-12-25T02:13:19.312Z,5.13
2022-12-25T02:16:02.160Z,5.30
2022-12-25T02:18:48.304Z,5.33
2022-12-25T02:21:54.273Z,5.40
2022-12-25T02:25:02.129Z,5.40
2022-12-25T02:28:01.668Z,5.50
2022-12-25T02:30:35.596Z,5.53
2022-12-25T02:33:32.477Z,5.50
2022-12-25T02:36:05.962Z,5.73
2022-12-25T02:38:39.148Z,5.63
2022-12-25T02:41:15.244Z,5.33
2022-12-25T02:44:02.821Z,4.93
2022-12-25T02:46:51.697Z,4.83
2022-12-25T02:49:42.040Z,5.30
2022-12-25T02:52:34.990Z,5.50
2022-12-25T02:55:40.250Z,4.90
2022-12-25T02:58:34.826Z,5.07
2022-12-25T03:01:27.998Z,4.80
2022-12-25T03:04:16.989Z,4.80
2022-12-25T03:07:06.716Z,3.90
2022-12-25T03:10:24.496Z,4.37
2022-12-25T03:12:56.737Z,5.00
2022-12-25T03:15:42.710Z,5.20
2022-12-25T03:18:14.684Z,4.80
2022-12-25T03:21:00.646Z,5.50
2022-12-25T03:23:51.048Z,6.10
2022-12-25T03:26:36.941Z,5.67
2022-12-25T03:29:04.145Z,6.37
2022-12-25T03:31:53.939Z,5.90
2022-12-25T03:35:17.791Z,5.73
2022-12-25T03:38:35.256Z,5.67
2022-12-25T03:41:44.647Z,6.40
2022-12-25T03:44:54.595Z,7.13
2022-12-25T03:47:58.728Z,6.33
2022-12-25T03:50:49.229Z,6.57
2022-12-25T03:53:41.458Z,6.70
2022-12-25T03:56:28.005Z,6.93
2022-12-25T03:59:22.857Z,7.37
2022-12-25T04:02:10.780Z,6.67
2022-12-25T04:04:56.812Z,6.57
2022-12-25T04:07:42.407Z,6.93
2022-12-25T04:10:28.480Z,6.70
2022-12-25T04:13:14.517Z,6.70
2022-12-25T04:16:00.288Z,6.93
2022-12-25T04:18:45.958Z,7.47
2022-12-25T04:21:31.534Z,6.90
2022-12-25T04:24:16.785Z,7.47
2022-12-25T04:27:02.344Z,7.07
2022-12-25T04:29:47.793Z,6.90
2022-12-25T04:32:33.353Z,7.37
2022-12-25T04:35:20.127Z,7.63
2022-12-25T04:37:47.105Z,7.37
2022-12-25T04:40:14.473Z,7.20
2022-12-25T04:42:41.594Z,6.87
2022-12-25T04:45:09.605Z,7.33
2022-12-25T04:47:36.619Z,7.60
2022-12-25T04:50:03.927Z,6.90
2022-12-25T04:52:36.153Z,7.63
2022-12-25T04:55:04.212Z,7.37
2022-12-25T04:57:31.133Z,7.57
2022-12-25T04:59:58.110Z,7.27
2022-12-25T05:02:25.395Z,7.17
2022-12-25T05:04:52.534Z,7.47
2022-12-25T05:07:19.512Z,6.97
2022-12-25T05:09:46.498Z,7.03
2022-12-25T05:12:13.796Z,6.93
2022-12-25T05:14:41.354Z,6.60
2022-12-25T05:17:08.457Z,7.17
2022-12-25T05:19:35.581Z,7.23
2022-12-25T05:22:02.500Z,7.00
2022-12-25T05:24:29.629Z,8.23
2022-12-25T05:26:56.674Z,7.47
2022-12-25T05:29:23.637Z,7.60
2022-12-25T05:31:50.709Z,6.97
2022-12-25T05:34:17.713Z,6.73
2022-12-25T05:36:44.746Z,6.57
2022-12-25T05:39:11.788Z,7.17
2022-12-25T05:41:38.753Z,7.23
2022-12-25T05:44:05.622Z,7.20
2022-12-25T05:46:32.617Z,7.27
2022-12-25T05:48:59.531Z,7.37
2022-12-25T05:51:26.752Z,7.00
2022-12-25T05:53:53.871Z,6.43
2022-12-25T05:56:20.820Z,6.50
2022-12-25T05:58:48.105Z,6.97
2022-12-25T06:01:24.626Z,6.60
2022-12-25T06:03:51.941Z,6.70
2022-12-25T06:06:19.341Z,6.70
2022-12-25T06:08:46.786Z,7.13
2022-12-25T06:11:14.686Z,6.90
2022-12-25T06:13:42.251Z,7.20
2022-12-25T06:16:11.520Z,8.20
2022-12-25T06:18:45.189Z,7.03
2022-12-25T06:21:14.459Z,6.43
2022-12-25T06:23:42.243Z,7.07
2022-12-25T06:26:16.469Z,6.23
2022-12-25T06:28:44.410Z,6.17
2022-12-25T06:31:17.182Z,6.17
2022-12-25T06:33:44.574Z,6.20
2022-12-25T06:36:23.055Z,6.17
2022-12-25T06:38:50.793Z,5.97
2022-12-25T06:41:24.386Z,6.07
2022-12-25T06:43:54.010Z,6.20
2022-12-25T06:46:22.150Z,6.10
2022-12-25T06:48:50.545Z,6.00
2022-12-25T06:51:19.556Z,5.70
2022-12-25T06:53:48.094Z,6.23
2022-12-25T06:56:17.437Z,6.03
2022-12-25T06:58:45.153Z,5.67
2022-12-25T07:01:20.464Z,5.40
2022-12-25T07:03:50.153Z,5.20
2022-12-25T07:06:17.809Z,5.00
2022-12-25T07:08:44.776Z,5.03
2022-12-25T07:11:12.164Z,5.60
2022-12-25T07:13:40.656Z,5.37
2022-12-25T07:16:08.129Z,5.30
2022-12-25T07:18:35.400Z,6.20
2022-12-25T07:21:10.370Z,5.53
2022-12-25T07:23:37.562Z,5.53
2022-12-25T07:26:04.881Z,6.57
2022-12-25T07:28:32.736Z,6.77
2022-12-25T07:31:09.744Z,6.60
2022-12-25T07:33:37.114Z,6.03
2022-12-25T07:36:05.593Z,5.97
2022-12-25T07:38:33.157Z,5.33
2022-12-25T07:41:00.388Z,6.40
2022-12-25T07:43:27.900Z,5.90
2022-12-25T07:45:57.028Z,6.10
2022-12-25T07:48:29.317Z,5.30
2022-12-25T07:50:57.720Z,5.27
2022-12-25T07:53:24.765Z,5.33
2022-12-25T07:56:06.450Z,6.00
2022-12-25T07:58:36.622Z,5.73
2022-12-25T08:01:21.314Z,5.80
2022-12-25T08:03:53.804Z,5.67
2022-12-25T08:06:23.110Z,6.33
2022-12-25T08:08:50.130Z,6.67
2022-12-25T08:11:18.422Z,6.67
2022-12-25T08:13:46.442Z,7.67
2022-12-25T08:16:13.521Z,7.40
2022-12-25T08:18:40.935Z,8.07
2022-12-25T08:21:15.121Z,8.43
2022-12-25T08:23:45.300Z,8.03
2022-12-25T08:26:15.901Z,8.63
2022-12-25T08:28:43.208Z,7.77
2022-12-25T08:31:15.037Z,7.47
2022-12-25T08:33:42.907Z,8.17
2022-12-25T08:36:11.353Z,6.97
2022-12-25T08:38:38.999Z,6.40
2022-12-25T08:41:06.841Z,7.20
2022-12-25T08:43:33.672Z,6.20
2022-12-25T08:46:00.921Z,6.07
2022-12-25T08:48:28.204Z,5.97
2022-12-25T08:50:55.636Z,5.77
2022-12-25T08:53:23.026Z,5.47
2022-12-25T08:55:56.417Z,5.80
2022-12-25T08:58:23.603Z,5.50
2022-12-25T09:00:53.987Z,5.73
2022-12-25T09:03:22.177Z,5.63
2022-12-25T09:05:49.227Z,5.30
2022-12-25T09:08:16.332Z,4.90
2022-12-25T09:10:43.280Z,5.17
2022-12-25T09:13:12.830Z,5.47
2022-12-25T09:15:40.375Z,4.97
2022-12-25T09:18:07.368Z,5.10
2022-12-25T09:20:34.464Z,5.03
2022-12-25T09:23:01.449Z,5.30
2022-12-25T09:25:28.692Z,4.67
2022-12-25T09:27:56.687Z,5.37
2022-12-25T09:30:23.860Z,5.33
2022-12-25T09:32:50.775Z,5.70
2022-12-25T09:35:19.104Z,6.10
2022-12-25T09:37:46.432Z,7.17
2022-12-25T09:40:25.722Z,6.30
2022-12-25T09:42:54.981Z,8.13
2022-12-25T09:45:32.975Z,6.20
2022-12-25T09:48:00.101Z,10.43
2022-12-25T09:50:51.492Z,9.13
2022-12-25T09:53:28.035Z,5.10
2022-12-25T09:56:16.781Z,4.10
2022-12-25T09:58:44.244Z,4.23
2022-12-25T10:01:36.880Z,4.00
2022-12-25T10:04:12.785Z,3.73
2022-12-25T10:06:48.790Z,3.63
2022-12-25T10:09:29.866Z,2.80
2022-12-25T10:12:24.059Z,2.70
2022-12-25T10:15:04.950Z,2.80
2022-12-25T10:18:19.851Z,2.70
2022-12-25T10:20:54.270Z,2.70
2022-12-25T10:23:45.113Z,2.50
2022-12-25T10:26:19.659Z,2.60
2022-12-25T10:28:58.553Z,2.20
2022-12-25T10:31:29.485Z,2.80
2022-12-25T10:33:57.008Z,2.60
2022-12-25T10:36:27.241Z,2.80
2022-12-25T10:38:55.915Z,2.53
2022-12-25T10:42:14.075Z,2.70
2022-12-25T10:44:41.032Z,2.20
2022-12-25T10:47:08.348Z,2.33
2022-12-25T10:49:37.881Z,2.10
2022-12-25T10:52:21.957Z,2.50
2022-12-25T10:54:49.363Z,2.13
2022-12-25T10:57:19.598Z,1.93
2022-12-25T10:59:58.087Z,2.00
2022-12-25T11:02:51.357Z,1.60
2022-12-25T11:05:36.939Z,1.90
2022-12-25T11:08:04.349Z,2.00
2022-12-25T11:10:38.575Z,1.80
2022-12-25T11:13:08.143Z,2.00
2022-12-25T11:15:43.244Z,2.10
2022-12-25T11:18:33.482Z,2.10
2022-12-25T11:21:15.840Z,1.90
2022-12-25T11:23:55.413Z,2.00
2022-12-25T11:26:22.578Z,1.80
2022-12-25T11:28:51.800Z,2.23
2022-12-25T11:31:21.599Z,1.80
2022-12-25T11:34:03.228Z,1.63
2022-12-25T11:36:48.061Z,1.90
2022-12-25T11:39:32.706Z,1.70
2022-12-25T11:42:20.282Z,1.70
2022-12-25T11:44:53.031Z,1.57
2022-12-25T11:47:25.790Z,1.60
2022-12-25T11:50:05.007Z,1.93
2022-12-25T11:52:40.597Z,1.90
2022-12-25T11:55:15.849Z,1.70
2022-12-25T11:57:46.808Z,1.80
2022-12-25T12:00:16.604Z,1.67
2022-12-25T12:03:01.422Z,1.90
2022-12-25T12:05:56.262Z,2.27
2022-12-25T12:08:23.216Z,1.60
2022-12-25T12:10:56.302Z,1.90
2022-12-25T12:14:00.778Z,1.50
2022-12-25T12:16:28.404Z,1.30
2022-12-25T12:18:55.784Z,1.40
2022-12-25T12:21:26.345Z,1.60
2022-12-25T12:23:56.362Z,1.40
2022-12-25T12:26:26.986Z,1.40
2022-12-25T12:28:57.986Z,1.57
2022-12-25T12:31:36.411Z,1.50
2022-12-25T12:34:03.858Z,1.37
2022-12-25T12:36:36.100Z,1.27
2022-12-25T12:39:05.291Z,1.50
2022-12-25T12:41:47.407Z,1.47
2022-12-25T12:44:17.781Z,1.40
2022-12-25T12:46:56.208Z,1.60
2022-12-25T12:49:29.071Z,1.57
2022-12-25T12:52:06.079Z,1.50
2022-12-25T12:54:53.517Z,1.40
2022-12-25T12:57:27.201Z,1.17
2022-12-25T12:59:54.221Z,1.97
2022-12-25T13:02:46.893Z,1.50
2022-12-25T13:05:36.202Z,1.20
2022-12-25T13:08:24.617Z,2.10
2022-12-25T13:11:08.595Z,1.37
2022-12-25T13:13:41.951Z,1.20
2022-12-25T13:16:42.826Z,1.07
2022-12-25T13:19:19.517Z,0.90
2022-12-25T13:22:03.336Z,1.03
2022-12-25T13:24:37.210Z,1.20
2022-12-25T13:27:23.382Z,1.20
2022-12-25T13:29:50.838Z,1.00
2022-12-25T13:32:23.944Z,1.10
2022-12-25T13:34:52.074Z,0.90
2022-12-25T13:37:23.177Z,1.30
2022-12-25T13:39:56.556Z,0.80
2022-12-25T13:42:29.162Z,0.73
2022-12-25T13:44:58.731Z,0.80
2022-12-25T13:47:36.351Z,0.60
2022-12-25T13:50:26.693Z,0.90
2022-12-25T13:52:57.193Z,0.60
2022-12-25T13:55:29.358Z,0.67
2022-12-25T13:57:59.344Z,0.77
2022-12-25T14:00:32.618Z,0.60
2022-12-25T14:03:00.414Z,0.67
2022-12-25T14:05:39.845Z,0.87
2022-12-25T14:08:20.781Z,0.70
2022-12-25T14:10:50.330Z,0.70
2022-12-25T14:13:19.648Z,0.80
2022-12-25T14:15:48.570Z,0.73
2022-12-25T14:18:20.207Z,0.93
2022-12-25T14:21:04.847Z,0.97
2022-12-25T14:23:40.618Z,0.90
2022-12-25T14:26:14.524Z,0.80
2022-12-25T14:28:41.647Z,0.80
2022-12-25T14:31:12.249Z,0.90
2022-12-25T14:33:40.567Z,1.03
2022-12-25T14:36:10.554Z,1.00
2022-12-25T14:38:40.748Z,1.20
2022-12-25T14:41:33.699Z,1.10
2022-12-25T14:44:02.941Z,1.40
2022-12-25T14:46:32.383Z,1.30
2022-12-25T14:49:07.694Z,1.50
2022-12-25T14:51:38.828Z,1.43
2022-12-25T14:54:16.952Z,2.00
2022-12-25T14:56:48.719Z,2.03
2022-12-25T14:59:29.291Z,2.40
2022-12-25T15:01:59.219Z,2.17
2022-12-25T15:04:28.118Z,1.90
2022-12-25T15:07:07.094Z,2.53
2022-12-25T15:09:36.096Z,2.50
2022-12-25T15:12:03.167Z,3.00
2022-12-25T15:14:31.615Z,2.93
2022-12-25T15:17:01.236Z,2.90
2022-12-25T15:19:38.702Z,3.30
2022-12-25T15:22:06.451Z,4.20
2022-12-25T15:24:33.413Z,4.37
2022-12-25T15:27:00.921Z,4.20
2022-12-25T15:30:00.021Z,4.73
2022-12-25T15:32:20.746Z,4.63
2022-12-25T15:34:49.991Z,5.10
2022-12-25T15:37:18.089Z,4.70
2022-12-25T15:39:45.387Z,4.80
2022-12-25T15:42:15.049Z,5.03
2022-12-25T15:44:42.816Z,5.20
2022-12-25T15:47:14.815Z,5.97
2022-12-25T15:49:41.812Z,6.47
2022-12-25T15:52:13.626Z,6.70
2022-12-25T15:54:40.698Z,6.87
2022-12-25T15:57:20.715Z,6.50
2022-12-25T15:59:47.707Z,6.87
2022-12-25T16:02:17.187Z,7.80
2022-12-25T16:04:44.341Z,8.23
2022-12-25T16:07:15.567Z,8.53
2022-12-25T16:09:42.784Z,8.80
2022-12-25T16:12:09.809Z,9.60
2022-12-25T16:14:36.760Z,9.37
2022-12-25T16:17:04.422Z,8.70
2022-12-25T16:19:31.795Z,7.67
2022-12-25T16:21:58.796Z,7.57
2022-12-25T16:24:25.708Z,8.30
2022-12-25T16:26:52.640Z,8.43
2022-12-25T16:29:19.588Z,8.40
2022-12-25T16:31:46.606Z,8.23
2022-12-25T16:34:13.681Z,8.67
2022-12-25T16:36:40.607Z,9.00
2022-12-25T16:39:07.614Z,9.07
2022-12-25T16:41:34.621Z,8.33
2022-12-25T16:44:09.300Z,7.93
2022-12-25T16:46:37.250Z,8.30
2022-12-25T16:49:04.524Z,8.27
2022-12-25T16:51:31.590Z,8.33
2022-12-25T16:53:58.611Z,7.87
2022-12-25T16:56:28.273Z,8.10
2022-12-25T16:58:57.250Z,7.87
2022-12-25T17:01:25.095Z,8.03
2022-12-25T17:03:52.265Z,8.37
2022-12-25T17:06:23.180Z,7.57
2022-12-25T17:08:51.992Z,8.07
2022-12-25T17:11:24.372Z,7.60
2022-12-25T17:13:51.517Z,7.83
2022-12-25T17:16:24.839Z,7.97
2022-12-25T17:19:04.420Z,7.07
2022-12-25T17:21:36.710Z,7.50
2022-12-25T17:24:04.462Z,7.00
2022-12-25T17:26:32.962Z,7.67
2022-12-25T17:29:00.372Z,10.17
2022-12-25T17:31:27.661Z,10.17
2022-12-25T17:33:55.273Z,9.00
2022-12-25T17:36:22.468Z,8.03
2022-12-25T17:38:49.449Z,9.20
2022-12-25T17:41:17.721Z,8.57
2022-12-25T17:43:45.742Z,8.07
2022-12-25T17:46:24.516Z,7.40
2022-12-25T17:48:52.287Z,7.37
2022-12-25T17:51:21.594Z,6.07
2022-12-25T17:53:54.028Z,6.10
2022-12-25T17:56:22.751Z,5.23
2022-12-25T17:58:51.927Z,5.30
2022-12-25T18:01:19.855Z,4.90
2022-12-25T18:03:47.461Z,3.87
2022-12-25T18:06:17.383Z,4.20
2022-12-25T18:08:45.879Z,3.03
2022-12-25T18:11:19.191Z,3.00
2022-12-25T18:13:49.911Z,3.10
2022-12-25T18:16:19.118Z,2.90
2022-12-25T18:18:51.917Z,3.00
2022-12-25T18:21:21.425Z,3.53
2022-12-25T18:23:49.298Z,3.30
2022-12-25T18:26:16.717Z,2.50
2022-12-25T18:28:44.060Z,2.57
2022-12-25T18:31:14.966Z,2.83
2022-12-25T18:33:42.741Z,2.40
2022-12-25T18:36:12.675Z,2.53
2022-12-25T18:38:39.632Z,2.63
2022-12-25T18:41:08.322Z,2.50
2022-12-25T18:43:53.548Z,3.03
2022-12-25T18:46:24.536Z,3.37
2022-12-25T18:48:53.171Z,2.70
2022-12-25T18:51:20.185Z,2.50
2022-12-25T18:53:47.241Z,2.90
2022-12-25T18:56:17.600Z,3.80
2022-12-25T18:58:45.799Z,3.00
2022-12-25T19:01:20.404Z,2.67
2022-12-25T19:03:49.243Z,2.63
2022-12-25T19:06:18.587Z,2.60
2022-12-25T19:08:45.754Z,2.80
2022-12-25T19:11:13.011Z,3.93
2022-12-25T19:13:40.040Z,4.00
2022-12-25T19:16:07.168Z,3.50
2022-12-25T19:18:34.079Z,2.83
2022-12-25T19:21:05.976Z,3.07
2022-12-25T19:23:33.157Z,3.67
2022-12-25T19:26:00.084Z,3.67
2022-12-25T19:28:26.986Z,2.60
2022-12-25T19:30:54.192Z,2.90
2022-12-25T19:33:21.902Z,2.60
2022-12-25T19:35:49.165Z,3.23
2022-12-25T19:38:16.387Z,5.00
2022-12-25T19:41:00.232Z,6.63
2022-12-25T19:43:33.826Z,5.60
2022-12-25T19:46:01.890Z,6.97
2022-12-25T19:48:30.331Z,4.77
2022-12-25T19:50:57.670Z,4.80
2022-12-25T19:53:25.097Z,5.80
2022-12-25T19:55:53.073Z,5.10
2022-12-25T19:58:20.717Z,4.37
2022-12-25T20:01:02.271Z,4.57
2022-12-25T20:03:29.339Z,4.00
2022-12-25T20:05:56.661Z,3.90
2022-12-25T20:08:23.778Z,3.70
2022-12-25T20:10:51.188Z,3.93
2022-12-25T20:13:18.765Z,4.13
2022-12-25T20:15:45.891Z,4.40
2022-12-25T20:18:12.904Z,4.80
2022-12-25T20:20:40.120Z,4.60
2022-12-25T20:23:07.206Z,4.47
2022-12-25T20:25:34.203Z,5.53
2022-12-25T20:28:04.486Z,5.43
2022-12-25T20:30:31.493Z,5.87
2022-12-25T20:32:58.379Z,6.10
2022-12-25T20:35:25.337Z,6.60
2022-12-25T20:37:52.272Z,5.27
2022-12-25T20:40:19.326Z,5.77
2022-12-25T20:42:46.242Z,6.13
2022-12-25T20:45:13.204Z,5.80
2022-12-25T20:47:40.137Z,6.17
2022-12-25T20:50:32.446Z,5.83
2022-12-25T20:52:59.372Z,6.50
2022-12-25T20:55:26.351Z,6.53
2022-12-25T20:57:53.589Z,6.47
2022-12-25T21:00:20.765Z,7.40
2022-12-25T21:02:47.806Z,6.90
2022-12-25T21:05:15.024Z,7.03
2022-12-25T21:07:42.000Z,7.60
2022-12-25T21:10:09.546Z,8.40
2022-12-25T21:12:36.529Z,8.33
2022-12-25T21:15:04.022Z,10.03
2022-12-25T21:17:30.925Z,9.50
2022-12-25T21:19:57.825Z,9.50
2022-12-25T21:22:24.773Z,11.03
2022-12-25T21:24:53.370Z,14.47
2022-12-25T21:27:20.286Z,12.00
2022-12-25T21:29:47.258Z,9.33
2022-12-25T21:32:32.609Z,10.43
2022-12-25T21:34:59.606Z,10.40
2022-12-25T21:37:26.582Z,10.30
2022-12-25T21:39:53.700Z,10.83
2022-12-25T21:42:20.697Z,9.80
2022-12-25T21:44:48.354Z,9.47
2022-12-25T21:47:15.378Z,10.43
2022-12-25T21:50:00.697Z,10.17
2022-12-25T21:52:27.671Z,10.53
2022-12-25T21:54:54.604Z,10.10
2022-12-25T21:57:21.484Z,10.30
2022-12-25T21:59:48.455Z,9.63
2022-12-25T22:02:15.487Z,10.03
2022-12-25T22:04:42.642Z,10.07
2022-12-25T22:07:19.145Z,10.17
2022-12-25T22:09:47.785Z,9.77
2022-12-25T22:12:34.908Z,10.00
2022-12-25T22:15:06.817Z,10.60
2022-12-25T22:17:55.971Z,9.37
2022-12-25T22:20:28.005Z,10.23
2022-12-25T22:22:55.055Z,10.50
2022-12-25T22:25:22.363Z,10.13
2022-12-25T22:27:50.665Z,10.83
2022-12-25T22:30:20.818Z,10.53
2022-12-25T22:32:48.812Z,10.00
2022-12-25T22:35:16.293Z,9.97
2022-12-25T22:37:44.038Z,9.67
2022-12-25T22:40:15.009Z,9.90
2022-12-25T22:42:42.171Z,9.90
2022-12-25T22:45:09.677Z,10.67
2022-12-25T22:47:36.758Z,10.30
2022-12-25T22:50:04.359Z,10.30
2022-12-25T22:52:31.300Z,10.23
2022-12-25T22:54:58.273Z,10.87
2022-12-25T22:57:25.201Z,10.70
2022-12-25T22:59:53.012Z,10.83
2022-12-25T23:02:20.627Z,9.37
2022-12-25T23:04:47.900Z,9.10
2022-12-25T23:07:15.741Z,9.77
2022-12-25T23:09:43.955Z,8.53
2022-12-25T23:12:31.865Z,9.27
2022-12-25T23:15:00.605Z,9.80
2022-12-25T23:17:46.024Z,9.10
2022-12-25T23:20:33.666Z,9.27
2022-12-25T23:23:19.806Z,8.33
2022-12-25T23:26:06.099Z,7.73
2022-12-25T23:28:51.501Z,8.97
2022-12-25T23:31:20.552Z,9.20
2022-12-25T23:33:47.880Z,8.27
2022-12-25T23:36:14.832Z,8.23
2022-12-25T23:38:41.758Z,8.43
2022-12-25T23:41:08.750Z,8.37
2022-12-25T23:43:35.666Z,8.37
2022-12-25T23:46:02.880Z,8.13
2022-12-25T23:48:29.860Z,8.57
2022-12-25T23:50:56.946Z,8.80
2022-12-25T23:53:23.822Z,7.97
2022-12-25T23:55:55.600Z,8.10
2022-12-25T23:58:23.753Z,8.30
